createdAt,value
2019-03-15T00:01:12.434Z,90.70
2019-03-15T00:03:38.570Z,90.60
2019-03-15T00:06:05.020Z,90.60
2019-03-15T00:08:31.426Z,90.60
2019-03-15T00:10:57.690Z,90.60
2019-03-15T00:13:23.836Z,90.50
2019-03-15T00:15:50.224Z,90.40
2019-03-15T00:18:16.382Z,90.50
2019-03-15T00:20:42.537Z,90.40
2019-03-15T00:23:08.685Z,90.30
2019-03-15T00:25:34.819Z,90.30
2019-03-15T00:28:01.003Z,90.30
2019-03-15T00:30:27.314Z,90.40
2019-03-15T00:32:53.471Z,90.30
2019-03-15T00:35:19.644Z,90.20
2019-03-15T00:37:45.787Z,90.20
2019-03-15T00:40:12.431Z,90.20
2019-03-15T00:42:38.587Z,90.30
2019-03-15T00:45:08.347Z,90.40
2019-03-15T00:47:34.893Z,90.30
2019-03-15T00:50:01.032Z,90.20
2019-03-15T00:52:27.183Z,90.20
2019-03-15T00:54:53.319Z,90.00
2019-03-15T00:57:19.477Z,90.00
2019-03-15T00:59:45.654Z,90.00
2019-03-15T01:02:11.807Z,90.10
2019-03-15T01:04:37.948Z,90.00
2019-03-15T01:07:04.216Z,90.00
2019-03-15T01:09:30.366Z,90.00
2019-03-15T01:11:56.533Z,90.10
2019-03-15T01:14:23.026Z,90.00
2019-03-15T01:16:49.162Z,90.00
2019-03-15T01:19:15.379Z,90.00
2019-03-15T01:21:41.520Z,89.70
2019-03-15T01:24:07.721Z,90.30
2019-03-15T01:26:33.874Z,89.80
2019-03-15T01:29:00.042Z,89.70
2019-03-15T01:31:26.178Z,89.80
2019-03-15T01:33:53.338Z,89.70
2019-03-15T01:36:19.518Z,88.80
2019-03-15T01:38:45.670Z,89.60
2019-03-15T01:41:11.816Z,89.30
2019-03-15T01:43:38.472Z,89.70
2019-03-15T01:46:04.724Z,89.60
2019-03-15T01:48:30.938Z,89.70
2019-03-15T01:50:57.067Z,89.50
2019-03-15T01:53:23.572Z,89.80
2019-03-15T01:55:49.975Z,89.80
2019-03-15T01:58:16.167Z,90.00
2019-03-15T02:00:42.311Z,90.10
2019-03-15T02:03:08.464Z,90.10
2019-03-15T02:05:35.141Z,90.20
2019-03-15T02:08:01.388Z,90.30
2019-03-15T02:10:27.546Z,90.40
2019-03-15T02:12:53.743Z,90.20
2019-03-15T02:15:19.906Z,90.40
2019-03-15T02:17:46.051Z,90.30
2019-03-15T02:20:12.265Z,90.30
2019-03-15T02:22:38.477Z,90.40
2019-03-15T02:25:04.840Z,90.40
2019-03-15T02:27:30.975Z,90.50
2019-03-15T02:29:57.238Z,90.60
2019-03-15T02:32:23.522Z,90.50
2019-03-15T02:34:49.663Z,90.60
2019-03-15T02:37:15.818Z,90.70
2019-03-15T02:39:42.072Z,90.60
2019-03-15T02:42:08.222Z,90.80
2019-03-15T02:44:34.372Z,90.80
2019-03-15T02:47:00.523Z,91.20
2019-03-15T02:49:26.668Z,90.70
2019-03-15T02:51:52.825Z,90.80
2019-03-15T02:54:18.975Z,90.80
2019-03-15T02:56:45.150Z,90.80
2019-03-15T02:59:11.317Z,90.80
2019-03-15T03:01:37.469Z,90.80
2019-03-15T03:04:04.036Z,90.80
2019-03-15T03:06:30.185Z,90.60
2019-03-15T03:08:56.338Z,90.60
2019-03-15T03:11:22.625Z,90.50
2019-03-15T03:13:50.276Z,90.70
2019-03-15T03:16:17.808Z,90.80
2019-03-15T03:18:44.506Z,90.70
2019-03-15T03:21:10.659Z,90.70
2019-03-15T03:23:36.803Z,90.70
2019-03-15T03:26:03.004Z,90.70
2019-03-15T03:28:30.255Z,90.70
2019-03-15T03:30:56.420Z,90.60
2019-03-15T03:33:22.601Z,90.60
2019-03-15T03:35:48.836Z,90.60
2019-03-15T03:38:14.986Z,90.70
2019-03-15T03:40:41.150Z,90.60
2019-03-15T03:43:07.305Z,90.60
2019-03-15T03:45:33.770Z,90.60
2019-03-15T03:47:59.929Z,90.70
2019-03-15T03:50:26.080Z,90.60
2019-03-15T03:52:52.231Z,90.60
2019-03-15T03:55:18.788Z,90.60
2019-03-15T03:57:44.940Z,90.60
2019-03-15T04:00:13.310Z,90.60
2019-03-15T04:02:39.474Z,90.70
2019-03-15T04:05:05.690Z,90.60
2019-03-15T04:07:32.171Z,90.60
2019-03-15T04:09:58.349Z,90.60
2019-03-15T04:12:24.546Z,90.70
2019-03-15T04:14:50.733Z,90.60
2019-03-15T04:17:16.895Z,90.70
2019-03-15T04:19:43.047Z,90.90
2019-03-15T04:22:09.230Z,90.90
2019-03-15T04:24:35.359Z,90.80
2019-03-15T04:27:01.539Z,90.80
2019-03-15T04:29:27.711Z,90.80
2019-03-15T04:31:53.872Z,90.60
2019-03-15T04:34:20.024Z,90.60
2019-03-15T04:36:46.230Z,90.70
2019-03-15T04:39:14.102Z,90.70
2019-03-15T04:41:40.497Z,90.70
2019-03-15T04:44:06.653Z,90.70
2019-03-15T04:46:32.802Z,90.60
2019-03-15T04:48:59.303Z,90.60
2019-03-15T04:51:25.466Z,90.70
2019-03-15T04:53:51.623Z,90.60
2019-03-15T04:56:18.079Z,91.10
2019-03-15T04:58:44.229Z,90.60
2019-03-15T05:01:10.424Z,90.70
2019-03-15T05:03:36.659Z,90.70
2019-03-15T05:06:04.039Z,91.20
2019-03-15T05:08:30.478Z,90.80
2019-03-15T05:10:56.636Z,90.80
2019-03-15T05:13:22.815Z,90.80
2019-03-15T05:15:48.966Z,90.70
2019-03-15T05:18:15.125Z,90.80
2019-03-15T05:20:42.386Z,90.70
2019-03-15T05:23:08.552Z,90.90
2019-03-15T05:25:35.706Z,90.90
2019-03-15T05:28:02.125Z,90.90
2019-03-15T05:30:28.272Z,91.00
2019-03-15T05:32:54.437Z,91.10
2019-03-15T05:35:20.599Z,91.00
2019-03-15T05:37:46.743Z,91.00
2019-03-15T05:40:12.944Z,91.40
2019-03-15T05:42:39.395Z,91.10
2019-03-15T05:45:08.447Z,91.20
2019-03-15T05:47:34.615Z,91.30
2019-03-15T05:50:00.752Z,91.40
2019-03-15T05:52:26.903Z,92.00
2019-03-15T05:54:53.056Z,92.00
2019-03-15T05:57:19.202Z,91.90
2019-03-15T05:59:45.651Z,92.20
2019-03-15T06:02:11.806Z,92.20
2019-03-15T06:04:37.979Z,92.20
2019-03-15T06:07:04.131Z,92.20
2019-03-15T06:09:30.313Z,92.40
2019-03-15T06:11:56.456Z,92.50
2019-03-15T06:14:22.622Z,92.70
2019-03-15T06:16:48.772Z,92.70
2019-03-15T06:19:14.939Z,92.90
2019-03-15T06:21:41.407Z,92.90
2019-03-15T06:24:07.843Z,93.00
2019-03-15T06:26:33.991Z,93.10
2019-03-15T06:29:01.631Z,93.30
2019-03-15T06:31:28.379Z,93.20
2019-03-15T06:33:54.676Z,93.20
2019-03-15T06:36:20.987Z,93.40
2019-03-15T06:38:47.135Z,93.70
2019-03-15T06:41:14.486Z,94.20
2019-03-15T06:43:41.253Z,94.80
2019-03-15T06:46:07.395Z,94.30
2019-03-15T06:48:33.548Z,94.60
2019-03-15T06:50:59.700Z,94.80
2019-03-15T06:53:25.839Z,95.10
2019-03-15T06:55:52.020Z,95.30
2019-03-15T06:58:18.160Z,96.20
2019-03-15T07:00:44.344Z,95.90
2019-03-15T07:03:10.634Z,96.00
2019-03-15T07:05:36.847Z,96.20
2019-03-15T07:08:03.092Z,96.40
2019-03-15T07:10:29.248Z,96.60
2019-03-15T07:12:55.408Z,96.50
2019-03-15T07:15:21.577Z,96.60
2019-03-15T07:17:48.047Z,96.40
2019-03-15T07:20:17.266Z,96.70
2019-03-15T07:22:43.415Z,96.80
2019-03-15T07:25:10.872Z,96.90
2019-03-15T07:27:37.026Z,97.00
2019-03-15T07:30:14.315Z,96.80
2019-03-15T07:32:40.465Z,97.00
2019-03-15T07:35:07.467Z,97.00
2019-03-15T07:37:33.807Z,97.10
2019-03-15T07:39:59.951Z,97.00
2019-03-15T07:42:26.104Z,96.90
2019-03-15T07:44:52.248Z,97.00
2019-03-15T07:47:18.409Z,97.10
2019-03-15T07:49:44.536Z,97.00
2019-03-15T07:52:11.109Z,96.90
2019-03-15T07:54:38.518Z,97.20
2019-03-15T07:57:04.940Z,97.30
2019-03-15T07:59:31.105Z,97.30
2019-03-15T08:01:57.246Z,97.30
2019-03-15T08:04:23.389Z,97.40
2019-03-15T08:06:49.813Z,97.60
2019-03-15T08:09:16.352Z,97.50
2019-03-15T08:11:42.553Z,97.50
2019-03-15T08:14:08.710Z,97.50
2019-03-15T08:16:34.872Z,97.40
2019-03-15T08:19:01.007Z,97.60
2019-03-15T08:21:27.164Z,97.50
2019-03-15T08:23:53.616Z,97.50
2019-03-15T08:26:19.820Z,97.60
2019-03-15T08:28:46.285Z,97.60
2019-03-15T08:31:12.516Z,97.50
2019-03-15T08:33:38.897Z,97.50
2019-03-15T08:36:05.062Z,97.50
2019-03-15T08:38:31.211Z,97.50
2019-03-15T08:40:57.372Z,97.60
2019-03-15T08:43:23.536Z,98.00
2019-03-15T08:45:50.779Z,97.60
2019-03-15T08:48:16.931Z,97.70
2019-03-15T08:50:43.271Z,97.50
2019-03-15T08:53:09.439Z,97.80
2019-03-15T08:55:35.916Z,97.80
2019-03-15T08:58:13.275Z,97.80
2019-03-15T09:00:30.431Z,97.80
2019-03-15T09:02:56.591Z,98.10
2019-03-15T09:05:22.735Z,98.10
2019-03-15T09:07:48.916Z,98.10
2019-03-15T09:10:23.825Z,98.10
2019-03-15T09:12:47.281Z,98.20
2019-03-15T09:15:13.477Z,98.20
2019-03-15T09:17:39.682Z,98.10
2019-03-15T09:20:09.074Z,98.20
2019-03-15T09:22:37.801Z,98.10
2019-03-15T09:25:18.517Z,98.20
2019-03-15T09:27:37.994Z,98.10
2019-03-15T09:30:22.020Z,98.00
2019-03-15T09:32:35.995Z,98.10
2019-03-15T09:35:03.704Z,98.10
2019-03-15T09:37:29.860Z,98.10
2019-03-15T09:39:56.006Z,98.10
2019-03-15T09:42:23.159Z,98.30
2019-03-15T09:44:49.582Z,98.40
2019-03-15T09:47:15.736Z,98.30
2019-03-15T09:49:41.886Z,98.20
2019-03-15T09:52:08.069Z,98.30
2019-03-15T09:54:34.310Z,98.30
2019-03-15T09:57:00.461Z,98.20
2019-03-15T09:59:26.955Z,98.10
2019-03-15T10:01:53.101Z,98.30
2019-03-15T10:04:19.500Z,98.30
2019-03-15T10:06:45.639Z,98.20
2019-03-15T10:09:12.074Z,98.30
2019-03-15T10:11:38.225Z,98.20
2019-03-15T10:14:04.372Z,98.10
2019-03-15T10:16:30.548Z,98.10
2019-03-15T10:18:56.880Z,98.00
2019-03-15T10:21:23.019Z,98.20
2019-03-15T10:23:49.172Z,98.10
2019-03-15T10:26:15.311Z,97.90
2019-03-15T10:28:41.796Z,97.70
2019-03-15T10:31:07.983Z,97.80
2019-03-15T10:33:34.143Z,97.90
2019-03-15T10:36:00.293Z,97.70
2019-03-15T10:38:26.450Z,97.40
2019-03-15T10:40:52.625Z,97.30
2019-03-15T10:43:18.788Z,97.60
2019-03-15T10:45:45.183Z,97.20
2019-03-15T10:48:24.151Z,97.10
2019-03-15T10:50:39.508Z,96.80
2019-03-15T10:53:06.026Z,96.90
2019-03-15T10:55:32.175Z,96.70
2019-03-15T10:57:58.350Z,96.70
2019-03-15T11:00:24.526Z,96.30
2019-03-15T11:02:50.681Z,96.30
2019-03-15T11:05:16.847Z,96.10
2019-03-15T11:07:43.389Z,96.10
2019-03-15T11:10:10.741Z,96.10
2019-03-15T11:12:38.014Z,96.10
2019-03-15T11:15:07.271Z,96.00
2019-03-15T11:17:33.654Z,95.80
2019-03-15T11:20:00.042Z,95.90
2019-03-15T11:22:26.188Z,95.80
2019-03-15T11:24:52.553Z,95.50
2019-03-15T11:27:18.730Z,95.80
2019-03-15T11:29:44.868Z,95.20
2019-03-15T11:32:11.017Z,95.30
2019-03-15T11:34:37.187Z,94.90
2019-03-15T11:37:04.404Z,94.70
2019-03-15T11:39:30.552Z,94.80
2019-03-15T11:41:56.697Z,94.30
2019-03-15T11:44:22.867Z,94.50
2019-03-15T11:46:49.292Z,94.30
2019-03-15T11:49:15.459Z,94.40
2019-03-15T11:51:42.650Z,94.00
2019-03-15T11:54:09.205Z,94.20
2019-03-15T11:56:35.351Z,94.10
2019-03-15T11:59:01.503Z,94.40
2019-03-15T12:01:27.697Z,94.30
2019-03-15T12:03:53.865Z,94.10
2019-03-15T12:06:20.007Z,94.20
2019-03-15T12:08:46.161Z,94.10
2019-03-15T12:11:12.316Z,93.90
2019-03-15T12:13:38.464Z,93.90
2019-03-15T12:16:04.622Z,93.80
2019-03-15T12:18:30.807Z,93.60
2019-03-15T12:20:57.208Z,93.70
2019-03-15T12:23:23.354Z,93.70
2019-03-15T12:25:49.497Z,93.60
2019-03-15T12:28:15.688Z,93.60
2019-03-15T12:30:43.241Z,93.50
2019-03-15T12:33:09.622Z,93.10
2019-03-15T12:35:35.820Z,92.70
2019-03-15T12:38:02.181Z,92.50
2019-03-15T12:40:28.435Z,92.20
2019-03-15T12:42:55.009Z,92.10
2019-03-15T12:45:21.167Z,92.00
2019-03-15T12:47:47.323Z,92.00
2019-03-15T12:50:14.401Z,92.00
2019-03-15T12:52:47.525Z,91.90
2019-03-15T12:55:10.110Z,91.50
2019-03-15T12:57:36.500Z,91.30
2019-03-15T13:00:06.357Z,90.90
2019-03-15T13:02:32.527Z,91.00
2019-03-15T13:04:58.927Z,90.40
2019-03-15T13:07:25.097Z,90.90
2019-03-15T13:09:51.520Z,90.80
2019-03-15T13:12:17.679Z,90.70
2019-03-15T13:14:44.078Z,90.40
2019-03-15T13:17:10.224Z,90.10
2019-03-15T13:19:36.593Z,90.30
2019-03-15T13:22:02.758Z,90.00
2019-03-15T13:24:29.187Z,90.10
2019-03-15T13:27:06.991Z,90.20
2019-03-15T13:29:23.397Z,90.20
2019-03-15T13:31:49.554Z,90.30
2019-03-15T13:34:16.048Z,89.80
2019-03-15T13:36:42.477Z,90.10
2019-03-15T13:39:08.633Z,90.10
2019-03-15T13:41:34.782Z,90.00
2019-03-15T13:44:00.941Z,90.10
2019-03-15T13:46:27.107Z,90.30
2019-03-15T13:48:53.263Z,90.30
2019-03-15T13:51:22.528Z,90.20
2019-03-15T13:53:47.811Z,90.00
2019-03-15T13:56:14.258Z,90.10
2019-03-15T13:58:40.404Z,90.30
2019-03-15T14:01:06.559Z,90.30
2019-03-15T14:03:32.945Z,90.80
2019-03-15T14:05:59.121Z,90.80
2019-03-15T14:08:25.278Z,90.90
2019-03-15T14:10:51.424Z,90.80
2019-03-15T14:13:17.569Z,90.60
2019-03-15T14:15:43.717Z,90.60
2019-03-15T14:18:09.867Z,90.40
2019-03-15T14:20:36.332Z,90.40
2019-03-15T14:23:02.478Z,90.60
2019-03-15T14:25:28.731Z,90.60
2019-03-15T14:27:54.886Z,90.50
2019-03-15T14:30:21.064Z,90.60
2019-03-15T14:32:47.209Z,90.40
2019-03-15T14:35:13.358Z,90.40
2019-03-15T14:37:39.756Z,90.30
2019-03-15T14:40:10.102Z,90.30
2019-03-15T14:42:36.343Z,90.50
2019-03-15T14:45:05.167Z,90.40
2019-03-15T14:47:31.372Z,90.30
2019-03-15T14:49:57.515Z,90.30
2019-03-15T14:52:23.670Z,90.20
2019-03-15T14:54:49.819Z,90.10
2019-03-15T14:57:15.981Z,90.10
2019-03-15T14:59:42.141Z,90.00
2019-03-15T15:02:08.575Z,90.00
2019-03-15T15:04:35.004Z,90.00
2019-03-15T15:07:01.432Z,89.90
2019-03-15T15:09:27.583Z,90.00
2019-03-15T15:11:53.731Z,89.90
2019-03-15T15:14:19.906Z,89.60
2019-03-15T15:16:46.344Z,89.30
2019-03-15T15:19:12.784Z,89.50
2019-03-15T15:21:39.207Z,89.60
2019-03-15T15:24:05.392Z,89.80
2019-03-15T15:26:31.622Z,90.00
2019-03-15T15:28:57.813Z,89.80
2019-03-15T15:31:23.962Z,90.10
2019-03-15T15:33:50.458Z,90.40
2019-03-15T15:36:16.612Z,91.30
2019-03-15T15:38:42.775Z,92.30
2019-03-15T15:41:09.248Z,92.60
2019-03-15T15:43:35.454Z,93.20
2019-03-15T15:46:01.624Z,93.70
2019-03-15T15:48:27.788Z,94.00
2019-03-15T15:50:54.364Z,94.50
2019-03-15T15:53:20.812Z,94.80
2019-03-15T15:55:47.009Z,95.20
2019-03-15T15:58:18.259Z,95.10
2019-03-15T16:00:41.236Z,95.50
2019-03-15T16:03:07.699Z,95.30
2019-03-15T16:05:33.851Z,95.40
2019-03-15T16:08:00.007Z,95.30
2019-03-15T16:10:26.165Z,95.50
2019-03-15T16:12:52.314Z,95.50
2019-03-15T16:15:18.520Z,95.60
2019-03-15T16:17:45.603Z,95.50
2019-03-15T16:20:12.106Z,95.70
2019-03-15T16:22:38.254Z,96.20
2019-03-15T16:25:07.304Z,96.10
2019-03-15T16:27:33.740Z,96.40
2019-03-15T16:29:59.900Z,96.40
2019-03-15T16:32:26.050Z,97.00
2019-03-15T16:34:52.204Z,96.90
2019-03-15T16:37:18.392Z,96.80
2019-03-15T16:39:44.531Z,97.60
2019-03-15T16:42:10.727Z,97.80
2019-03-15T16:44:36.987Z,97.70
2019-03-15T16:47:03.261Z,97.70
2019-03-15T16:49:29.407Z,97.70
2019-03-15T16:51:55.554Z,97.80
2019-03-15T16:54:21.956Z,97.40
2019-03-15T16:56:48.820Z,97.10
2019-03-15T16:59:14.990Z,96.60
2019-03-15T17:01:41.152Z,96.30
2019-03-15T17:04:07.371Z,96.40
2019-03-15T17:06:33.597Z,96.80
2019-03-15T17:08:59.739Z,97.20
2019-03-15T17:11:25.904Z,96.80
2019-03-15T17:13:52.039Z,96.70
2019-03-15T17:16:18.231Z,96.80
2019-03-15T17:18:44.649Z,96.90
2019-03-15T17:21:10.823Z,96.90
2019-03-15T17:23:37.223Z,96.70
2019-03-15T17:26:03.730Z,96.30
2019-03-15T17:28:29.877Z,96.50
2019-03-15T17:31:08.743Z,96.00
2019-03-15T17:33:24.669Z,96.00
2019-03-15T17:35:51.056Z,96.00
2019-03-15T17:38:17.199Z,96.40
2019-03-15T17:40:43.382Z,96.50
2019-03-15T17:43:09.600Z,96.40
2019-03-15T17:45:35.747Z,96.60
2019-03-15T17:48:02.111Z,96.30
2019-03-15T17:50:28.279Z,94.00
2019-03-15T17:52:54.435Z,94.20
2019-03-15T17:55:20.579Z,93.90
2019-03-15T17:57:46.757Z,93.90
2019-03-15T18:00:30.624Z,93.40
2019-03-15T18:02:57.148Z,93.60
2019-03-15T18:05:23.315Z,93.50
2019-03-15T18:07:49.796Z,92.70
2019-03-15T18:10:16.189Z,92.80
2019-03-15T18:12:42.486Z,92.90
2019-03-15T18:15:09.430Z,92.50
2019-03-15T18:17:36.434Z,92.50
2019-03-15T18:20:04.797Z,92.10
2019-03-15T18:22:31.149Z,92.00
2019-03-15T18:24:57.302Z,92.00
2019-03-15T18:27:23.439Z,91.70
2019-03-15T18:29:49.584Z,91.80
2019-03-15T18:32:15.747Z,91.80
2019-03-15T18:34:41.892Z,92.00
2019-03-15T18:37:08.052Z,91.60
2019-03-15T18:39:34.210Z,92.10
2019-03-15T18:42:00.587Z,92.90
2019-03-15T18:44:26.731Z,93.00
2019-03-15T18:46:53.111Z,93.40
2019-03-15T18:49:19.261Z,93.40
2019-03-15T18:51:45.644Z,93.70
2019-03-15T18:54:17.465Z,94.00
2019-03-15T18:56:39.843Z,94.20
2019-03-15T18:59:06.121Z,94.50
2019-03-15T19:01:32.509Z,94.50
2019-03-15T19:03:58.728Z,94.80
2019-03-15T19:06:24.998Z,94.80
2019-03-15T19:08:51.261Z,95.10
2019-03-15T19:11:17.444Z,94.90
2019-03-15T19:13:43.629Z,95.10
2019-03-15T19:16:19.465Z,95.20
2019-03-15T19:18:38.115Z,95.20
2019-03-15T19:21:04.316Z,95.50
2019-03-15T19:23:31.807Z,95.40
2019-03-15T19:25:57.972Z,95.40
2019-03-15T19:28:24.158Z,95.20
2019-03-15T19:30:50.325Z,95.40
2019-03-15T19:33:16.671Z,95.50
2019-03-15T19:35:44.009Z,95.40
2019-03-15T19:38:10.245Z,95.50
2019-03-15T19:40:36.715Z,95.40
2019-03-15T19:43:02.929Z,95.60
2019-03-15T19:45:29.186Z,95.80
2019-03-15T19:47:55.360Z,95.60
2019-03-15T19:50:21.550Z,95.30
2019-03-15T19:52:49.129Z,95.10
2019-03-15T19:55:15.892Z,95.40
2019-03-15T19:57:42.081Z,95.50
2019-03-15T20:00:11.022Z,95.10
2019-03-15T20:02:37.720Z,95.00
2019-03-15T20:05:05.732Z,94.90
2019-03-15T20:07:31.976Z,95.20
2019-03-15T20:09:58.275Z,95.10
2019-03-15T20:12:24.486Z,94.90
2019-03-15T20:14:50.687Z,94.80
2019-03-15T20:17:16.842Z,94.80
2019-03-15T20:19:43.061Z,94.50
2019-03-15T20:22:09.532Z,94.60
2019-03-15T20:24:36.775Z,94.20
2019-03-15T20:27:03.086Z,94.20
2019-03-15T20:29:53.444Z,94.30
2019-03-15T20:32:19.941Z,93.90
2019-03-15T20:34:46.156Z,93.50
2019-03-15T20:37:12.382Z,92.70
2019-03-15T20:39:38.580Z,92.60
2019-03-15T20:42:05.782Z,92.30
2019-03-15T20:44:31.962Z,91.90
2019-03-15T20:46:58.118Z,92.10
2019-03-15T20:49:24.288Z,91.50
2019-03-15T20:51:50.723Z,91.80
2019-03-15T20:54:16.871Z,92.20
2019-03-15T20:56:43.057Z,92.30
2019-03-15T20:59:09.271Z,92.40
2019-03-15T21:01:35.551Z,92.20
2019-03-15T21:04:01.803Z,91.90
2019-03-15T21:06:28.201Z,92.10
2019-03-15T21:08:54.342Z,92.00
2019-03-15T21:11:20.497Z,92.20
2019-03-15T21:13:46.685Z,92.00
2019-03-15T21:16:12.870Z,92.00
2019-03-15T21:18:39.006Z,92.10
2019-03-15T21:21:05.291Z,92.20
2019-03-15T21:23:32.624Z,92.20
2019-03-15T21:25:58.807Z,92.20
2019-03-15T21:28:25.027Z,92.20
2019-03-15T21:30:51.242Z,92.50
2019-03-15T21:33:17.468Z,92.40
2019-03-15T21:35:43.600Z,92.30
2019-03-15T21:38:09.771Z,92.50
2019-03-15T21:40:36.164Z,92.40
2019-03-15T21:43:02.423Z,92.40
2019-03-15T21:45:28.581Z,92.50
2019-03-15T21:47:54.755Z,92.10
2019-03-15T21:50:21.495Z,92.20
2019-03-15T21:52:48.362Z,92.20
2019-03-15T21:55:14.548Z,92.10
2019-03-15T21:57:40.725Z,92.10
2019-03-15T22:00:17.130Z,92.20
2019-03-15T22:02:43.594Z,92.20
2019-03-15T22:05:09.750Z,92.10
2019-03-15T22:07:36.026Z,92.30
2019-03-15T22:10:04.750Z,92.30
2019-03-15T22:12:31.056Z,92.40
2019-03-15T22:14:57.260Z,92.40
2019-03-15T22:17:23.465Z,92.80
2019-03-15T22:19:49.618Z,92.70
2019-03-15T22:22:15.797Z,93.00
2019-03-15T22:24:41.989Z,93.00
2019-03-15T22:27:08.192Z,93.30
2019-03-15T22:29:34.394Z,93.30
2019-03-15T22:32:00.689Z,93.20
2019-03-15T22:34:26.912Z,93.50
2019-03-15T22:36:53.093Z,93.30
2019-03-15T22:39:19.654Z,93.50
2019-03-15T22:41:45.803Z,93.80
2019-03-15T22:44:12.292Z,93.50
2019-03-15T22:46:38.451Z,93.40
2019-03-15T22:49:04.977Z,93.70
2019-03-15T22:51:32.129Z,93.80
2019-03-15T22:53:58.569Z,93.60
2019-03-15T22:56:24.711Z,93.80
2019-03-15T22:58:51.232Z,93.70
2019-03-15T23:01:29.537Z,93.40
2019-03-15T23:03:45.436Z,93.70
2019-03-15T23:06:11.579Z,93.50
2019-03-15T23:08:37.749Z,93.60
2019-03-15T23:11:03.912Z,93.60
2019-03-15T23:13:30.063Z,93.60
2019-03-15T23:15:56.267Z,93.70
2019-03-15T23:18:22.415Z,93.80
2019-03-15T23:20:48.917Z,93.70
2019-03-15T23:23:23.704Z,93.70
2019-03-15T23:25:43.262Z,93.60
2019-03-15T23:28:09.829Z,93.60
2019-03-15T23:30:36.069Z,93.70
2019-03-15T23:33:02.241Z,93.80
2019-03-15T23:35:28.391Z,94.00
2019-03-15T23:37:54.647Z,93.70
2019-03-15T23:40:20.829Z,93.80
2019-03-15T23:42:46.979Z,94.10
2019-03-15T23:45:13.151Z,94.20
2019-03-15T23:47:39.306Z,94.30
2019-03-15T23:50:13.173Z,94.50
2019-03-15T23:52:39.338Z,94.60
2019-03-15T23:55:05.704Z,94.70
2019-03-15T23:57:31.856Z,94.70
2019-03-15T23:59:58.031Z,94.70
